Time;durP1;ratioP1;P1;durP2;ratioP2;P2;SDS_P1;SDS_P2;PMS_P1;PMS_P2;Temp;Humidity;BMP_temperature;BMP_pressure;BME280_temperature;BME280_humidity;BME280_pressure;Samples;Min_cycle;Max_cycle;Signal;HPM_P1;HPM_P2
2023/03/24 00:00:26;;;;;;;37.20;24.92;;;;;;;12.05;89.90;98899.28;5052327;28;20120;-79
2023/03/24 00:02:51;;;;;;;41.45;25.67;;;;;;;12.13;89.56;98911.81;5052401;28;20469;-79
2023/03/24 00:05:19;;;;;;;31.27;20.48;;;;;;;12.09;89.70;98898.09;5052289;28;20107;-79
2023/03/24 00:07:45;;;;;;;29.75;20.85;;;;;;;12.15;89.85;98907.34;5051866;28;20033;-79
2023/03/24 00:10:14;;;;;;;31.88;21.10;;;;;;;12.05;89.52;98887.97;5052124;28;20670;-79
2023/03/24 00:12:41;;;;;;;23.65;16.10;;;;;;;12.23;89.17;98905.06;5051989;28;20028;-79
2023/03/24 00:15:10;;;;;;;79.60;44.75;;;;;;;12.15;89.19;98884.66;5050952;28;20437;-79
2023/03/24 00:17:38;;;;;;;67.47;37.47;;;;;;;12.16;89.14;98881.13;5050673;28;20491;-79
2023/03/24 00:20:14;;;;;;;71.45;39.08;;;;;;;12.21;89.20;98892.09;5051833;28;20075;-79
2023/03/24 00:22:47;;;;;;;70.95;38.30;;;;;;;12.19;89.22;98883.53;5051640;28;20032;-79
2023/03/24 00:25:13;;;;;;;31.02;20.70;;;;;;;12.24;89.19;98880.63;5052091;28;20027;-79
2023/03/24 00:27:38;;;;;;;31.17;19.48;;;;;;;12.26;89.43;98876.13;5050537;28;20380;-79
2023/03/24 00:30:07;;;;;;;18.83;13.85;;;;;;;12.14;88.62;98848.25;5052011;28;20028;-79
2023/03/24 00:32:32;;;;;;;15.25;12.73;;;;;;;12.25;88.86;98869.22;5051678;28;20074;-79
2023/03/24 00:34:59;;;;;;;14.90;12.18;;;;;;;12.35;88.47;98885.97;5051297;28;20017;-79
2023/03/24 00:37:24;;;;;;;17.05;13.73;;;;;;;12.30;88.74;98858.47;5051848;28;20098;-79
2023/03/24 00:39:50;;;;;;;18.58;14.00;;;;;;;12.44;88.13;98874.09;5051766;28;20025;-79
2023/03/24 00:42:15;;;;;;;20.90;15.15;;;;;;;12.45;88.39;98865.31;5051814;28;20029;-79
2023/03/24 00:44:40;;;;;;;21.27;16.05;;;;;;;12.48;88.13;98865.94;5051519;28;20063;-79
2023/03/24 00:47:06;;;;;;;21.30;16.92;;;;;;;12.47;87.47;98861.66;5051590;28;20036;-79
2023/03/24 00:49:43;;;;;;;44.45;26.60;;;;;;;12.23;87.59;98824.97;5051515;28;20457;-79
2023/03/24 00:52:16;;;;;;;28.88;18.38;;;;;;;12.32;87.61;98841.78;5051910;28;20055;-79
2023/03/24 00:54:44;;;;;;;20.10;14.52;;;;;;;12.46;87.47;98861.75;5051500;28;20036;-79
2023/03/24 00:57:11;;;;;;;22.38;15.57;;;;;;;12.35;87.31;98838.16;5051544;28;20017;-79
2023/03/24 00:59:41;;;;;;;25.08;15.95;;;;;;;12.48;87.10;98855.50;5051440;28;20069;-79
2023/03/24 01:02:10;;;;;;;53.58;29.48;;;;;;;12.52;87.16;98847.47;5051492;28;20021;-79
2023/03/24 01:04:37;;;;;;;95.88;45.50;;;;;;;12.55;86.99;98844.63;5051624;28;20090;-79
2023/03/24 01:07:02;;;;;;;44.90;25.42;;;;;;;12.42;87.09;98835.00;5051946;28;20033;-79
2023/03/24 01:09:28;;;;;;;66.13;35.03;;;;;;;12.34;87.07;98823.41;5051533;28;20033;-79
2023/03/24 01:11:53;;;;;;;26.88;17.88;;;;;;;12.42;87.04;98831.56;5051497;28;20128;-79
2023/03/24 01:14:19;;;;;;;35.95;22.08;;;;;;;12.34;87.31;98815.56;5051424;28;20108;-79
2023/03/24 01:16:45;;;;;;;47.05;28.10;;;;;;;12.49;87.20;98832.81;5051238;28;20436;-79
2023/03/24 01:19:10;;;;;;;81.88;43.58;;;;;;;12.47;87.26;98830.31;5051167;28;20103;-79
2023/03/24 01:21:37;;;;;;;47.65;27.65;;;;;;;12.51;87.27;98824.88;5051072;28;20500;-79
2023/03/24 01:24:03;;;;;;;41.47;26.30;;;;;;;12.39;87.11;98816.94;5051393;28;20051;-79
2023/03/24 01:26:29;;;;;;;35.33;22.58;;;;;;;12.45;87.42;98826.97;5051253;28;20393;-79
2023/03/24 01:28:55;;;;;;;35.35;22.17;;;;;;;12.45;87.23;98824.34;5051424;28;20029;-79
2023/03/24 01:31:20;;;;;;;25.15;15.98;;;;;;;12.42;87.11;98806.28;5051305;28;20025;-79
2023/03/24 01:33:45;;;;;;;27.15;19.23;;;;;;;12.57;86.94;98821.88;5051113;28;20445;-79
2023/03/24 01:36:11;;;;;;;29.15;19.77;;;;;;;12.60;86.74;98813.78;5051312;28;20017;-79
2023/03/24 01:38:37;;;;;;;20.90;14.68;;;;;;;12.61;86.77;98820.72;5051035;28;20147;-79
2023/03/24 01:41:04;;;;;;;14.98;11.15;;;;;;;12.61;86.59;98810.25;5051158;28;20040;-79
2023/03/24 01:43:32;;;;;;;14.30;11.13;;;;;;;12.63;86.45;98806.59;5051032;28;20036;-79
2023/03/24 01:46:17;;;;;;;15.23;11.65;;;;;;;12.59;86.35;98810.34;5052223;28;20021;-79
2023/03/24 01:48:51;;;;;;;18.77;13.02;;;;;;;12.29;86.66;98758.44;5054717;28;20029;-79
2023/03/24 01:51:34;;;;;;;16.23;12.52;;;;;;;12.50;86.62;98803.16;5054965;28;20031;-79
2023/03/24 01:54:02;;;;;;;17.75;12.75;;;;;;;12.53;86.76;98805.56;5054958;28;20037;-79
2023/03/24 01:56:33;;;;;;;18.60;12.95;;;;;;;12.49;86.69;98786.66;5054660;28;20033;-79
2023/03/24 01:59:02;;;;;;;19.50;13.27;;;;;;;12.46;86.57;98786.00;5054646;28;20107;-79
2023/03/24 02:01:30;;;;;;;19.48;14.45;;;;;;;12.49;86.66;98791.03;5054740;28;20024;-79
2023/03/24 02:04:02;;;;;;;19.80;15.05;;;;;;;12.46;86.47;98772.94;5054610;28;20484;-79
2023/03/24 02:06:29;;;;;;;15.43;11.65;;;;;;;12.54;86.57;98786.31;5054653;28;20476;-79
2023/03/24 02:08:57;;;;;;;15.77;11.63;;;;;;;12.55;86.31;98785.38;5054022;28;20385;-79
2023/03/24 02:11:25;;;;;;;15.73;12.20;;;;;;;12.53;85.90;98770.78;5054526;28;20059;-79
2023/03/24 02:13:51;;;;;;;31.33;20.88;;;;;;;12.60;86.08;98770.25;5054516;28;20048;-79
2023/03/24 02:16:32;;;;;;;28.98;16.33;;;;;;;12.67;85.98;98781.94;5054533;28;20400;-79
2023/03/24 02:19:16;;;;;;;19.48;11.77;;;;;;;12.64;85.79;98779.56;5054399;28;20064;-79
2023/03/24 02:21:53;;;;;;;19.05;13.60;;;;;;;12.67;85.65;98774.09;5054114;28;20029;-79
2023/03/24 02:24:39;;;;;;;12.52;8.07;;;;;;;12.69;85.85;98763.56;5054108;28;20108;-79
2023/03/24 02:27:25;;;;;;;15.88;10.20;;;;;;;12.71;85.83;98757.25;5054256;28;20032;-79
2023/03/24 02:30:07;;;;;;;16.38;9.90;;;;;;;12.65;86.09;98756.88;5053856;28;20033;-79
2023/03/24 02:33:00;;;;;;;11.77;8.20;;;;;;;12.58;86.36;98751.22;5053878;28;20525;-79
2023/03/24 02:35:53;;;;;;;12.05;8.60;;;;;;;12.59;86.67;98758.09;5053907;28;20029;-79
2023/03/24 02:38:33;;;;;;;14.80;8.52;;;;;;;12.59;85.94;98752.88;5053889;28;20111;-79
2023/03/24 02:41:16;;;;;;;10.63;7.90;;;;;;;12.67;85.61;98749.75;5054079;28;20029;-79
2023/03/24 02:43:50;;;;;;;9.65;7.78;;;;;;;12.72;85.68;98750.25;5053645;28;20103;-79
2023/03/24 02:46:18;;;;;;;12.52;8.43;;;;;;;12.74;85.19;98757.06;5053827;28;20043;-79
2023/03/24 02:49:17;;;;;;;11.68;7.85;;;;;;;12.73;85.11;98747.56;5053511;28;20040;-79
2023/03/24 02:51:49;;;;;;;11.90;9.23;;;;;;;12.72;85.03;98740.66;5052455;28;20083;-79
2023/03/24 02:54:28;;;;;;;13.65;8.73;;;;;;;12.74;85.28;98740.53;5053560;28;20120;-79
2023/03/24 02:57:35;;;;;;;11.52;8.00;;;;;;;12.66;85.82;98735.84;5053097;28;20029;-79
2023/03/24 03:00:17;;;;;;;10.82;6.68;;;;;;;12.64;86.05;98731.66;5031531;28;20040;-79
2023/03/24 03:02:57;;;;;;;9.25;6.68;;;;;;;12.53;86.28;98721.16;5031006;28;20055;-79
2023/03/24 03:05:34;;;;;;;12.23;7.03;;;;;;;12.40;86.38;98703.72;5031236;28;20087;-79
2023/03/24 03:08:04;;;;;;;9.55;7.43;;;;;;;12.49;86.39;98712.69;5031226;28;20034;-79
2023/03/24 03:10:35;;;;;;;12.02;8.13;;;;;;;12.55;86.70;98727.91;5030987;28;20042;-79
2023/03/24 03:13:07;;;;;;;9.85;6.70;;;;;;;12.48;86.57;98714.47;5031189;28;20120;-79
2023/03/24 03:15:39;;;;;;;9.10;6.57;;;;;;;12.38;87.14;98716.03;5030755;28;20557;-79
2023/03/24 03:18:21;;;;;;;9.02;6.00;;;;;;;12.40;87.20;98718.53;5014276;28;20041;-79
2023/03/24 03:20:54;;;;;;;9.63;6.57;;;;;;;12.62;87.29;98737.00;5030701;28;20033;-79
2023/03/24 03:23:24;;;;;;;9.20;7.13;;;;;;;12.64;87.39;98732.53;5030760;28;20140;-79
2023/03/24 03:25:56;;;;;;;8.45;7.18;;;;;;;12.45;87.89;98725.13;5030468;28;20494;-79
2023/03/24 03:28:23;;;;;;;;;;;;;;;12.47;88.16;98731.09;5031125;28;20040;-79
2023/03/24 03:30:58;;;;;;;8.15;6.28;;;;;;;12.33;88.76;98712.91;5013884;28;19913;-79
2023/03/24 03:33:29;;;;;;;7.78;5.88;;;;;;;12.35;88.96;98704.97;5030570;28;20479;-79
2023/03/24 03:36:05;;;;;;;7.23;6.40;;;;;;;12.50;89.33;98722.19;5045839;28;20152;-79
2023/03/24 03:38:37;;;;;;;6.70;5.85;;;;;;;12.58;89.04;98734.72;5052677;28;20029;-79
2023/03/24 03:41:04;;;;;;;8.75;6.53;;;;;;;12.35;89.55;98697.16;5052955;28;20021;-79
2023/03/24 03:43:31;;;;;;;7.95;6.72;;;;;;;12.54;90.01;98712.34;5052594;28;20036;-79
2023/03/24 03:45:59;;;;;;;8.35;5.90;;;;;;;12.62;89.97;98731.78;5052433;28;20048;-79
2023/03/24 03:48:25;;;;;;;9.23;8.25;;;;;;;12.67;90.46;98729.69;5052561;28;20032;-79
2023/03/24 03:50:51;;;;;;;8.98;7.28;;;;;;;12.63;90.70;98723.00;5052325;28;20040;-79
2023/03/24 03:53:20;;;;;;;6.85;6.13;;;;;;;12.51;91.27;98710.78;5052506;28;20124;-79
2023/03/24 03:55:46;;;;;;;8.52;6.20;;;;;;;12.58;91.42;98716.44;5052686;28;20112;-79
2023/03/24 03:58:11;;;;;;;10.57;7.22;;;;;;;12.45;92.02;98693.78;5052393;28;20111;-79
2023/03/24 04:00:38;;;;;;;8.25;6.05;;;;;;;12.43;92.44;98705.25;5052231;28;20025;-79
2023/03/24 04:03:22;;;;;;;8.90;6.88;;;;;;;12.55;92.53;98714.03;5052447;28;20065;-79
2023/03/24 04:06:07;;;;;;;9.05;7.47;;;;;;;12.56;92.75;98713.09;5050783;28;20500;-79
2023/03/24 04:08:49;;;;;;;8.38;7.07;;;;;;;12.58;92.91;98719.88;5052292;28;20475;-79
2023/03/24 04:12:08;;;;;;;8.05;6.40;;;;;;;12.63;92.94;98706.50;5051815;28;20036;-79
2023/03/24 04:14:50;;;;;;;12.15;6.97;;;;;;;12.55;93.26;98691.34;5029839;28;20475;-79
2023/03/24 04:17:34;;;;;;;7.93;6.65;;;;;;;12.67;93.30;98711.38;5029896;28;20045;-79
2023/03/24 04:20:19;;;;;;;7.57;6.78;;;;;;;12.64;93.62;98703.78;5029483;28;20053;-79
2023/03/24 04:22:47;;;;;;;8.73;7.30;;;;;;;12.62;93.85;98700.44;5029834;28;20029;-79
2023/03/24 04:25:19;;;;;;;10.00;6.85;;;;;;;12.60;94.23;98698.84;5029652;28;20049;-79
2023/03/24 04:28:08;;;;;;;7.00;6.30;;;;;;;12.49;95.30;98690.00;5029231;28;20091;-79
2023/03/24 04:30:49;;;;;;;8.32;7.53;;;;;;;12.26;95.45;98664.66;5029504;28;20045;-79
2023/03/24 04:33:47;;;;;;;8.00;6.95;;;;;;;12.26;95.94;98662.03;5029872;28;20613;-79
2023/03/24 04:36:30;;;;;;;9.57;6.72;;;;;;;12.36;95.86;98689.19;5029702;28;20033;-79
2023/03/24 04:39:00;;;;;;;7.30;6.50;;;;;;;12.30;95.81;98671.31;5029260;28;20048;-79
2023/03/24 04:41:28;;;;;;;9.50;7.55;;;;;;;12.37;95.43;98679.59;5029553;28;20136;-79
2023/03/24 04:43:56;;;;;;;8.60;6.40;;;;;;;12.35;95.62;98669.25;5029124;28;20064;-79
2023/03/24 04:46:22;;;;;;;9.38;7.28;;;;;;;12.32;95.34;98651.19;5029360;28;20032;-79
2023/03/24 04:48:47;;;;;;;9.20;6.53;;;;;;;12.38;94.97;98652.53;5029045;28;20029;-79
2023/03/24 04:51:14;;;;;;;10.68;6.20;;;;;;;12.21;94.52;98625.81;5043172;28;20048;-79
2023/03/24 04:53:40;;;;;;;9.10;6.60;;;;;;;12.37;94.63;98651.69;5051389;28;20028;-79
2023/03/24 04:56:27;;;;;;;9.40;7.32;;;;;;;12.46;94.31;98658.88;5051897;28;20094;-79
2023/03/24 04:58:52;;;;;;;8.30;7.25;;;;;;;12.49;93.97;98666.50;5051437;28;20489;-79
2023/03/24 05:01:20;;;;;;;10.13;8.52;;;;;;;12.52;93.82;98662.84;5051933;28;20032;-79
2023/03/24 05:03:46;;;;;;;9.52;7.45;;;;;;;12.55;93.16;98654.78;5050090;28;20024;-79
2023/03/24 05:06:11;;;;;;;11.25;8.15;;;;;;;12.46;93.20;98634.53;5051513;28;20112;-79
2023/03/24 05:08:37;;;;;;;9.80;7.68;;;;;;;12.48;92.81;98635.28;5051700;28;20041;-79
2023/03/24 05:11:02;;;;;;;12.77;9.30;;;;;;;12.65;92.95;98658.44;5051351;28;20050;-79
2023/03/24 05:13:28;;;;;;;12.48;8.50;;;;;;;12.58;92.35;98643.28;5051735;28;20029;-79
2023/03/24 05:15:53;;;;;;;12.10;8.85;;;;;;;12.56;92.37;98643.41;5051363;28;20155;-79
2023/03/24 05:18:21;;;;;;;8.80;7.85;;;;;;;12.54;91.99;98650.50;5050995;28;20036;-79
2023/03/24 05:20:47;;;;;;;9.05;7.97;;;;;;;12.48;92.45;98643.13;5051944;28;20473;-79
2023/03/24 05:23:15;;;;;;;7.60;6.90;;;;;;;12.67;92.23;98664.38;5055440;28;20029;-79
2023/03/24 05:25:40;;;;;;;7.88;6.20;;;;;;;12.68;91.67;98653.00;5055843;28;20095;-79
2023/03/24 05:28:06;;;;;;;8.35;5.97;;;;;;;12.74;91.58;98667.38;5054788;28;20033;-79
2023/03/24 05:30:31;;;;;;;8.77;6.25;;;;;;;12.67;91.23;98648.69;5055168;28;20017;-79
2023/03/24 05:32:56;;;;;;;7.40;6.10;;;;;;;12.72;91.23;98664.03;5054977;28;20063;-79
2023/03/24 05:35:23;;;;;;;6.70;5.78;;;;;;;12.77;91.43;98675.03;5055569;28;20485;-79
2023/03/24 05:37:49;;;;;;;6.90;5.93;;;;;;;12.80;90.74;98666.94;5055170;28;20040;-79
2023/03/24 05:40:15;;;;;;;7.22;5.45;;;;;;;12.89;90.43;98660.22;5055240;28;20021;-79
2023/03/24 05:42:41;;;;;;;7.53;6.22;;;;;;;12.86;90.00;98657.84;5055224;28;20361;-79
2023/03/24 05:45:07;;;;;;;6.20;5.47;;;;;;;13.01;89.77;98669.78;5054901;28;20470;-79
2023/03/24 05:47:32;;;;;;;9.63;6.65;;;;;;;12.96;89.70;98658.84;5054810;28;20384;-79
2023/03/24 05:49:58;;;;;;;8.23;6.25;;;;;;;12.94;89.52;98648.50;5054621;28;20059;-79
2023/03/24 05:52:23;;;;;;;10.00;5.55;;;;;;;12.90;89.27;98641.00;5055030;28;20059;-79
2023/03/24 05:54:51;;;;;;;6.70;6.00;;;;;;;13.02;89.00;98658.41;5054615;28;20040;-79
2023/03/24 05:57:18;;;;;;;7.53;5.53;;;;;;;13.15;88.89;98663.59;5054889;28;20511;-79
2023/03/24 05:59:43;;;;;;;7.50;5.57;;;;;;;13.20;88.67;98664.91;5054732;28;20028;-79
2023/03/24 06:02:09;;;;;;;6.55;5.40;;;;;;;13.20;88.61;98670.13;5055170;28;20028;-79
2023/03/24 06:04:35;;;;;;;9.45;6.60;;;;;;;13.15;88.45;98647.91;5054579;28;20075;-79
2023/03/24 06:07:01;;;;;;;5.90;4.75;;;;;;;13.20;88.32;98651.84;5054568;28;20052;-79
2023/03/24 06:09:28;;;;;;;8.77;6.38;;;;;;;13.28;88.42;98653.09;5054922;28;20040;-79
2023/03/24 06:11:59;;;;;;;7.70;6.90;;;;;;;13.37;88.14;98673.34;5054648;28;20173;-79
2023/03/24 06:14:25;;;;;;;9.05;6.60;;;;;;;13.21;88.75;98650.06;5054505;28;20101;-79
2023/03/24 06:16:50;;;;;;;8.98;6.70;;;;;;;13.31;88.64;98655.47;5054327;28;20509;-79
2023/03/24 06:19:16;;;;;;;7.82;6.65;;;;;;;13.29;88.64;98665.22;5054432;28;20045;-79
2023/03/24 06:21:43;;;;;;;11.10;7.57;;;;;;;13.30;89.29;98666.88;5054483;28;20026;-79
2023/03/24 06:24:13;;;;;;;9.20;7.38;;;;;;;13.34;89.01;98663.91;5054104;28;20531;-79
2023/03/24 06:26:40;;;;;;;7.90;6.93;;;;;;;13.32;88.97;98642.28;5054293;28;20021;-79
2023/03/24 06:29:06;;;;;;;9.68;7.82;;;;;;;13.45;88.60;98661.34;5054337;28;20044;-79
2023/03/24 06:31:33;;;;;;;9.82;7.00;;;;;;;13.51;88.17;98646.97;5053934;28;20025;-79
2023/03/24 06:33:58;;;;;;;7.63;6.82;;;;;;;13.60;87.87;98648.91;5053093;28;20465;-79
2023/03/24 06:36:24;;;;;;;6.95;5.90;;;;;;;13.66;87.94;98647.63;5054234;28;20075;-79
2023/03/24 06:38:50;;;;;;;8.57;7.15;;;;;;;13.63;88.09;98650.47;5053828;28;20047;-79
2023/03/24 06:41:15;;;;;;;8.13;6.13;;;;;;;13.60;88.38;98648.06;5054043;28;20032;-79
2023/03/24 06:43:40;;;;;;;8.73;6.40;;;;;;;13.67;88.21;98641.44;5053994;28;20029;-79
2023/03/24 06:46:06;;;;;;;8.02;7.07;;;;;;;13.60;88.26;98627.13;5053622;28;20029;-79
2023/03/24 06:48:32;;;;;;;6.50;5.80;;;;;;;13.80;87.82;98633.50;5053853;28;20068;-79
2023/03/24 06:50:57;;;;;;;8.75;6.50;;;;;;;13.88;87.63;98636.38;5053804;28;20112;-79
2023/03/24 06:53:23;;;;;;;7.97;6.22;;;;;;;13.83;87.54;98620.19;5053751;28;20549;-79
2023/03/24 06:55:48;;;;;;;8.70;7.45;;;;;;;13.98;87.17;98653.03;5053535;28;20492;-79
2023/03/24 06:58:15;;;;;;;9.85;6.18;;;;;;;13.82;86.85;98628.97;5053921;28;20068;-79
2023/03/24 07:00:41;;;;;;;8.32;6.65;;;;;;;13.83;87.28;98625.41;5053472;28;20465;-79
2023/03/24 07:03:07;;;;;;;8.15;5.90;;;;;;;13.69;87.64;98611.59;5053494;28;20079;-79
2023/03/24 07:05:37;;;;;;;9.55;6.18;;;;;;;13.75;88.65;98622.53;5053655;28;20025;-79
2023/03/24 07:08:03;;;;;;;8.45;6.28;;;;;;;13.77;88.40;98623.25;5053116;28;20086;-79
2023/03/24 07:10:29;;;;;;;7.32;5.72;;;;;;;13.76;88.29;98625.03;5053354;28;20465;-79
2023/03/24 07:12:54;;;;;;;7.03;6.32;;;;;;;13.90;88.34;98639.69;5052985;28;20549;-79
2023/03/24 07:15:19;;;;;;;6.93;5.85;;;;;;;13.84;88.32;98641.00;5053292;28;20067;-79
2023/03/24 07:17:45;;;;;;;8.32;6.78;;;;;;;13.91;88.05;98641.38;5053393;28;20408;-79
2023/03/24 07:20:10;;;;;;;7.57;5.70;;;;;;;13.81;88.30;98619.44;5053012;28;20045;-79
2023/03/24 07:22:36;;;;;;;7.45;5.80;;;;;;;13.85;88.31;98615.66;5053346;28;20487;-79
2023/03/24 07:25:03;;;;;;;8.65;6.28;;;;;;;13.81;88.26;98609.81;5052839;28;20024;-79
2023/03/24 07:27:31;;;;;;;8.40;6.70;;;;;;;13.83;88.42;98607.94;5053053;28;20060;-79
2023/03/24 07:29:57;;;;;;;7.13;6.30;;;;;;;13.70;88.50;98596.72;5052780;28;20025;-79
2023/03/24 07:32:23;;;;;;;9.80;6.45;;;;;;;13.96;88.48;98618.28;5053267;28;20021;-79
2023/03/24 07:34:49;;;;;;;7.35;5.95;;;;;;;13.89;88.19;98599.59;5053097;28;20456;-79
2023/03/24 07:37:14;;;;;;;7.78;5.72;;;;;;;14.05;87.78;98616.75;5052771;28;20036;-79
2023/03/24 07:39:40;;;;;;;7.80;5.63;;;;;;;14.10;87.57;98617.22;5052999;28;20021;-79
2023/03/24 07:42:05;;;;;;;6.72;5.45;;;;;;;14.10;87.47;98618.03;5052582;28;20028;-79
2023/03/24 07:44:30;;;;;;;7.70;6.45;;;;;;;14.12;87.31;98617.94;5052567;28;20036;-79
2023/03/24 07:46:56;;;;;;;6.70;5.63;;;;;;;14.08;87.04;98609.50;5052500;28;20021;-79
2023/03/24 07:49:21;;;;;;;7.88;5.72;;;;;;;14.00;86.98;98593.53;5052731;28;20082;-79
2023/03/24 07:51:46;;;;;;;6.88;5.53;;;;;;;14.11;86.86;98604.00;5053032;28;20025;-79
2023/03/24 07:54:12;;;;;;;8.68;5.68;;;;;;;14.19;87.03;98606.03;5052531;28;20029;-79
2023/03/24 07:56:37;;;;;;;7.43;5.32;;;;;;;14.07;86.78;98586.03;5052607;28;20087;-79
2023/03/24 07:59:03;;;;;;;8.32;5.07;;;;;;;14.08;86.93;98583.31;5052247;28;20032;-79
2023/03/24 08:01:28;;;;;;;6.70;5.10;;;;;;;14.04;86.92;98574.03;5052516;28;20362;-79
2023/03/24 08:03:53;;;;;;;7.60;5.43;;;;;;;14.21;87.15;98609.38;5052659;28;20116;-79
2023/03/24 08:06:19;;;;;;;12.63;8.70;;;;;;;14.13;87.37;98589.00;5052568;28;20542;-79
2023/03/24 08:08:44;;;;;;;18.10;12.23;;;;;;;14.05;87.07;98553.91;5052284;28;20091;-79
2023/03/24 08:11:10;;;;;;;16.85;11.27;;;;;;;14.41;86.85;98603.41;5052142;28;20107;-79
2023/03/24 08:13:35;;;;;;;14.38;9.88;;;;;;;14.50;86.24;98583.53;5052186;28;20387;-79
2023/03/24 08:16:00;;;;;;;20.73;14.05;;;;;;;14.72;86.39;98593.94;5052139;28;20078;-79
2023/03/24 08:18:26;;;;;;;11.52;9.00;;;;;;;14.97;85.55;98581.47;5052163;28;21006;-79
2023/03/24 08:20:57;;;;;;;9.75;7.32;;;;;;;15.13;84.53;98576.66;5052336;28;20055;-79
2023/03/24 08:23:23;;;;;;;13.98;9.25;;;;;;;15.29;83.96;98573.56;5052182;28;20025;-79
2023/03/24 08:25:49;;;;;;;10.75;7.88;;;;;;;15.13;83.00;98545.19;5052035;28;20025;-79
2023/03/24 08:28:15;;;;;;;9.68;7.07;;;;;;;15.43;82.87;98585.56;5051883;28;20472;-79
2023/03/24 08:30:42;;;;;;;12.35;7.40;;;;;;;15.26;82.84;98563.34;5052226;28;20255;-79
2023/03/24 08:33:10;;;;;;;10.57;7.00;;;;;;;15.29;82.51;98559.63;5052161;28;20540;-79
2023/03/24 08:35:39;;;;;;;13.60;8.23;;;;;;;15.35;82.33;98556.50;5052009;28;20033;-79
2023/03/24 08:38:09;;;;;;;13.43;7.63;;;;;;;15.37;82.12;98542.28;5051678;28;20036;-79
2023/03/24 08:40:37;;;;;;;11.60;7.50;;;;;;;15.75;81.27;98563.66;5051833;28;20025;-79
2023/03/24 08:43:09;;;;;;;9.27;6.93;;;;;;;15.84;80.56;98549.75;5051800;28;20039;-79
2023/03/24 08:45:35;;;;;;;8.00;6.43;;;;;;;16.06;79.74;98556.63;5051972;28;20048;-79
2023/03/24 08:48:02;;;;;;;5.53;5.00;;;;;;;16.29;79.51;98557.22;5051640;28;20029;-79
2023/03/24 08:50:33;;;;;;;5.55;4.25;;;;;;;16.51;78.75;98558.81;5051749;28;20095;-79
2023/03/24 08:52:58;;;;;;;5.00;4.38;;;;;;;16.56;77.94;98541.66;5051525;28;20043;-79
2023/03/24 08:55:24;;;;;;;5.05;4.22;;;;;;;16.80;77.40;98550.97;5053541;28;20477;-79
2023/03/24 08:57:50;;;;;;;4.43;3.97;;;;;;;16.56;76.89;98494.34;5058843;28;20028;-79
2023/03/24 09:00:17;;;;;;;5.05;3.97;;;;;;;16.98;76.63;98538.81;5058245;28;20021;-79
2023/03/24 09:02:47;;;;;;;5.80;4.00;;;;;;;16.82;76.79;98546.44;5057317;28;20366;-79
2023/03/24 09:05:14;;;;;;;6.13;4.60;;;;;;;16.61;77.36;98523.69;5058051;28;20078;-79
2023/03/24 09:07:40;;;;;;;5.25;3.88;;;;;;;16.59;77.12;98524.78;5058158;28;20064;-79
2023/03/24 09:10:07;;;;;;;6.60;4.03;;;;;;;16.58;76.92;98529.22;5058253;28;20017;-79
2023/03/24 09:12:33;;;;;;;5.72;4.63;;;;;;;16.70;77.18;98517.59;5058389;28;20029;-79
2023/03/24 09:14:58;;;;;;;4.95;4.45;;;;;;;16.80;77.04;98512.38;5058034;28;20052;-79
2023/03/24 09:17:24;;;;;;;4.72;3.65;;;;;;;17.04;76.08;98532.16;5058369;28;20087;-79
2023/03/24 09:19:49;;;;;;;7.47;5.55;;;;;;;16.98;76.46;98504.63;5058520;28;20052;-79
2023/03/24 09:22:14;;;;;;;7.00;5.03;;;;;;;17.15;76.73;98516.22;5057901;28;20320;-79
2023/03/24 09:24:40;;;;;;;5.35;4.78;;;;;;;17.13;75.87;98513.72;5058235;28;20032;-79
2023/03/24 09:27:05;;;;;;;3.60;3.30;;;;;;;17.16;75.66;98515.25;5057991;28;20074;-79
2023/03/24 09:29:30;;;;;;;4.32;3.92;;;;;;;17.22;75.81;98519.94;5057952;28;20029;-79
2023/03/24 09:31:56;;;;;;;4.10;3.70;;;;;;;16.98;75.25;98490.63;5058150;28;20112;-79
2023/03/24 09:34:23;;;;;;;4.40;4.00;;;;;;;17.07;75.82;98510.84;5058029;28;20028;-79
2023/03/24 09:36:49;;;;;;;6.72;4.30;;;;;;;16.96;75.94;98488.13;5057966;28;20025;-79
2023/03/24 09:39:14;;;;;;;5.80;3.88;;;;;;;17.09;75.91;98508.88;5058003;28;20106;-79
2023/03/24 09:41:44;;;;;;;5.20;3.72;;;;;;;17.10;75.94;98513.19;5058122;28;20155;-79
2023/03/24 09:44:32;;;;;;;5.40;4.03;;;;;;;17.03;75.95;98520.00;5057829;28;20469;-79
2023/03/24 09:47:15;;;;;;;5.82;3.13;;;;;;;16.92;75.68;98508.63;5057708;28;20047;-78
2023/03/24 09:49:41;;;;;;;4.10;3.70;;;;;;;16.82;75.91;98496.47;5038848;28;20036;-79
2023/03/24 09:52:13;;;;;;;3.42;3.10;;;;;;;16.77;76.54;98503.91;5037721;28;20468;-79
2023/03/24 09:54:47;;;;;;;4.38;3.67;;;;;;;16.78;76.58;98493.28;5038210;28;20079;-79
2023/03/24 09:57:22;;;;;;;8.13;4.13;;;;;;;16.67;76.37;98454.78;5037508;28;20104;-79
2023/03/24 09:59:47;;;;;;;8.25;5.50;;;;;;;16.87;75.93;98473.19;5037643;28;20128;-80
2023/03/24 10:02:17;;;;;;;27.42;9.55;;;;;;;16.98;75.89;98480.94;5037721;28;20196;-79
2023/03/24 10:04:42;;;;;;;13.18;6.15;;;;;;;17.10;75.70;98473.72;5037713;28;20029;-79
2023/03/24 10:07:17;;;;;;;19.65;8.80;;;;;;;17.24;75.31;98472.47;5036379;28;20036;-79
2023/03/24 10:09:47;;;;;;;14.93;7.32;;;;;;;17.48;75.03;98467.50;5034573;28;20569;-79
2023/03/24 10:12:20;;;;;;;11.93;6.20;;;;;;;17.36;73.75;98437.06;5034618;28;20393;-79
2023/03/24 10:15:19;;;;;;;12.40;6.22;;;;;;;17.60;73.57;98476.06;5035008;28;20029;-79
2023/03/24 10:18:17;;;;;;;7.03;4.32;;;;;;;17.56;73.79;98430.75;5034415;28;20519;-79
2023/03/24 10:20:55;;;;;;;6.25;4.00;;;;;;;17.90;72.62;98454.75;5034355;28;20037;-79
2023/03/24 10:23:35;;;;;;;11.27;5.40;;;;;;;18.07;72.21;98458.38;5034290;28;20075;-79
2023/03/24 10:26:39;;;;;;;20.95;9.60;;;;;;;18.03;72.16;98459.66;5034034;28;20120;-79
2023/03/24 10:29:22;;;;;;;8.60;5.07;;;;;;;18.08;71.60;98440.81;5011685;28;20046;-79
2023/03/24 10:31:59;;;;;;;5.60;3.92;;;;;;;18.30;71.11;98457.97;5012140;28;20039;-78
2023/03/24 10:34:29;;;;;;;12.07;7.25;;;;;;;18.31;70.64;98428.00;5011989;28;20057;-79
2023/03/24 10:36:57;;;;;;;9.13;5.45;;;;;;;18.40;70.69;98435.84;5011959;28;20045;-79
2023/03/24 10:39:23;;;;;;;14.55;7.18;;;;;;;18.58;70.36;98456.09;5011566;28;20288;-80
2023/03/24 10:41:50;;;;;;;6.43;4.32;;;;;;;18.59;70.48;98455.97;4995490;28;20778;-79
2023/03/24 10:44:16;;;;;;;3.85;3.42;;;;;;;18.55;70.14;98432.69;5011675;28;20065;-79
2023/03/24 10:46:49;;;;;;;5.40;3.45;;;;;;;18.68;69.94;98443.66;5011730;28;20053;-79
2023/03/24 10:49:18;;;;;;;3.70;3.28;;;;;;;18.77;69.66;98449.88;5011446;28;20409;-79
2023/03/24 10:51:55;;;;;;;3.83;3.00;;;;;;;18.79;69.17;98438.16;5011575;28;20030;-79
2023/03/24 10:54:23;;;;;;;4.53;3.38;;;;;;;18.80;68.91;98431.09;5011337;28;20042;-79
2023/03/24 10:56:56;;;;;;;4.00;3.47;;;;;;;18.93;68.47;98434.16;5027275;28;20034;-79
2023/03/24 10:59:43;;;;;;;6.38;3.38;;;;;;;18.97;67.97;98440.78;5031074;28;20040;-79
2023/03/24 11:02:08;;;;;;;4.80;3.38;;;;;;;19.04;67.78;98433.91;5031247;28;20037;-79
2023/03/24 11:04:38;;;;;;;4.20;3.78;;;;;;;19.18;67.72;98425.44;5031476;28;20377;-79
2023/03/24 11:07:19;;;;;;;5.32;3.80;;;;;;;19.22;67.63;98412.75;5033534;28;20030;-79
2023/03/24 11:10:07;;;;;;;3.45;3.15;;;;;;;19.30;65.39;98423.34;5033534;28;20477;-79
2023/03/24 11:12:41;;;;;;;3.13;2.92;;;;;;;19.23;64.20;98411.75;5033383;28;20080;-79
2023/03/24 11:15:20;;;;;;;4.00;3.10;;;;;;;19.22;63.28;98419.84;5033306;28;20075;-78
2023/03/24 11:17:47;;;;;;;5.28;3.42;;;;;;;19.07;63.80;98422.22;5033700;28;20102;-79
2023/03/24 11:20:38;;;;;;;6.50;3.28;;;;;;;18.81;64.05;98415.13;5032658;28;20053;-79
2023/03/24 11:23:15;;;;;;;3.58;3.28;;;;;;;18.73;64.43;98409.78;5032897;28;20514;-79
2023/03/24 11:25:44;;;;;;;2.95;2.75;;;;;;;18.56;64.78;98406.16;5033499;28;20017;-79
2023/03/24 11:28:25;;;;;;;4.05;3.40;;;;;;;18.47;64.94;98428.16;5032981;28;20029;-79
2023/03/24 11:30:52;;;;;;;;;;;;;;;18.41;65.52;98421.69;5033702;28;20021;-79
2023/03/24 11:33:27;;;;;;;3.70;3.38;;;;;;;18.38;65.63;98416.72;5032839;28;19963;-79
2023/03/24 11:35:53;;;;;;;4.10;3.60;;;;;;;18.35;66.21;98414.38;5033267;28;20049;-79
2023/03/24 11:38:27;;;;;;;4.18;3.42;;;;;;;18.30;66.48;98403.47;5033008;28;20472;-79
2023/03/24 11:40:57;;;;;;;3.92;3.58;;;;;;;18.40;66.40;98421.81;5033408;28;20041;-79
2023/03/24 11:43:24;;;;;;;3.58;3.28;;;;;;;18.45;65.83;98416.91;5032859;28;20039;-79